FTTD

Moundou Airport

Chad
METAR FTTD 181100Z 36006KT CAVOK 31/10 Q1015
Observed Flight Rules
Jan-18 @ 11:00 UTC (3 hours ago) Visual Flight Rules
Wind Visibility Clouds
360° at 6 knots 10,000+ meters
  • Clear skies
Temperatures Readings
Current 31°C / 88°F
Dewpoint 10°C / 50°F
Humidity 27%
Altimeter 29.97" Hg
Pressure 1014.92 hPa
Elevation 422
METAR FTTD 181100Z 36006KT CAVOK 31/10 Q1015
Observed Flight Rules
Jan-18 @ 11:00 UTC
(3 hours ago)
VFR
Wind Visibility
360° at 6 knots 10,000+ meters
Clouds
  • Clear skies
Temperature Dewpoint
31°C / 88°F 10°C / 50°F
Humidity Altimeter Pressure
27% 29.97" Hg 1014.92 hPa